createdAt,value
2017-11-12T00:00:06.609Z,11.77
2017-11-12T00:02:32.920Z,12.57
2017-11-12T00:05:14.772Z,11.23
2017-11-12T00:07:40.968Z,11.43
2017-11-12T00:10:07.149Z,11.43
2017-11-12T00:12:33.673Z,10.73
2017-11-12T00:14:59.854Z,11.27
2017-11-12T00:17:26.054Z,10.93
2017-11-12T00:19:52.295Z,10.90
2017-11-12T00:22:18.504Z,11.67
2017-11-12T00:24:45.463Z,10.60
2017-11-12T00:27:12.390Z,11.17
2017-11-12T00:29:38.623Z,11.23
2017-11-12T00:32:05.653Z,12.03
2017-11-12T00:34:32.599Z,11.00
2017-11-12T00:36:58.800Z,11.80
2017-11-12T00:39:25.050Z,11.37
2017-11-12T00:41:52.082Z,12.20
2017-11-12T00:44:18.298Z,10.53
2017-11-12T00:46:44.472Z,10.47
2017-11-12T00:49:10.715Z,9.60
2017-11-12T00:51:37.703Z,10.70
2017-11-12T00:54:04.657Z,12.87
2017-11-12T00:56:32.163Z,11.10
2017-11-12T00:58:59.480Z,11.80
2017-11-12T01:01:25.730Z,10.23
2017-11-12T01:03:51.977Z,10.40
2017-11-12T01:06:18.957Z,10.87
2017-11-12T01:08:45.309Z,10.67
2017-11-12T01:11:14.151Z,11.63
2017-11-12T01:13:41.118Z,9.97
2017-11-12T01:16:07.403Z,11.00
2017-11-12T01:18:33.598Z,11.50
2017-11-12T01:21:00.813Z,11.20
2017-11-12T01:23:27.740Z,12.30
2017-11-12T01:25:53.963Z,11.17
2017-11-12T01:28:20.181Z,11.40
2017-11-12T01:30:46.411Z,11.03
2017-11-12T01:33:13.628Z,11.67
2017-11-12T01:35:39.812Z,12.10
2017-11-12T01:38:06.063Z,9.80
2017-11-12T01:40:32.643Z,10.30
2017-11-12T01:42:59.000Z,12.47
2017-11-12T01:45:26.400Z,11.43
2017-11-12T01:47:52.610Z,11.57
2017-11-12T01:50:19.570Z,11.00
2017-11-12T01:52:45.783Z,12.37
2017-11-12T01:55:12.719Z,11.67
2017-11-12T01:57:39.835Z,11.20
2017-11-12T02:00:06.082Z,11.47
2017-11-12T02:02:32.329Z,12.47
2017-11-12T02:05:00.332Z,11.57
2017-11-12T02:07:26.640Z,10.50
2017-11-12T02:09:52.844Z,10.40
2017-11-12T02:12:19.102Z,10.93
2017-11-12T02:14:46.286Z,10.40
2017-11-12T02:17:12.604Z,10.27
2017-11-12T02:19:39.710Z,10.70
2017-11-12T02:22:05.927Z,10.00
2017-11-12T02:24:32.769Z,10.33
2017-11-12T02:26:59.988Z,10.50
2017-11-12T02:29:26.334Z,11.13
2017-11-12T02:31:52.665Z,10.93
2017-11-12T02:34:21.123Z,10.60
2017-11-12T02:36:47.363Z,10.80
2017-11-12T02:39:13.648Z,11.43
2017-11-12T02:41:40.710Z,11.47
2017-11-12T02:44:10.617Z,13.07
2017-11-12T02:46:37.636Z,13.30
2017-11-12T02:49:03.926Z,13.40
2017-11-12T02:51:30.173Z,12.30
2017-11-12T02:53:57.320Z,12.83
2017-11-12T02:56:24.741Z,12.50
2017-11-12T02:58:51.671Z,12.30
2017-11-12T03:01:18.616Z,11.50
2017-11-12T03:03:45.663Z,12.03
2017-11-12T03:06:12.819Z,10.87
2017-11-12T03:08:39.793Z,12.63
2017-11-12T03:11:06.972Z,11.17
2017-11-12T03:13:33.932Z,11.70
2017-11-12T03:16:00.219Z,12.40
2017-11-12T03:18:26.398Z,10.60
2017-11-12T03:20:52.631Z,10.63
2017-11-12T03:23:19.700Z,11.53
2017-11-12T03:25:47.624Z,11.30
2017-11-12T03:28:14.224Z,12.20
2017-11-12T03:30:40.584Z,12.60
2017-11-12T03:33:06.826Z,11.70
2017-11-12T03:35:33.028Z,12.30
2017-11-12T03:37:59.268Z,11.30
2017-11-12T03:40:26.240Z,11.10
2017-11-12T03:42:53.448Z,11.10
2017-11-12T03:45:19.720Z,9.97
2017-11-12T03:47:47.684Z,10.50
2017-11-12T03:50:14.752Z,11.00
2017-11-12T03:52:42.378Z,10.23
2017-11-12T03:55:08.720Z,10.07
2017-11-12T03:57:34.954Z,9.60
2017-11-12T04:00:02.160Z,9.97
2017-11-12T04:02:29.931Z,11.30
2017-11-12T04:04:56.176Z,9.33
2017-11-12T04:07:22.405Z,9.03
2017-11-12T04:09:49.542Z,10.90
2017-11-12T04:12:15.797Z,10.47
2017-11-12T04:14:43.718Z,10.17
2017-11-12T04:17:10.730Z,9.80
2017-11-12T04:19:37.949Z,9.00
2017-11-12T04:22:04.134Z,9.07
2017-11-12T04:24:32.807Z,9.43
2017-11-12T04:26:58.998Z,8.50
2017-11-12T04:29:25.212Z,8.73
2017-11-12T04:31:52.148Z,9.90
2017-11-12T04:34:19.071Z,10.40
2017-11-12T04:36:46.219Z,9.27
2017-11-12T04:39:14.380Z,7.70
2017-11-12T04:41:40.845Z,8.97
2017-11-12T04:44:07.800Z,10.13
2017-11-12T04:46:36.229Z,9.30
2017-11-12T04:49:03.487Z,8.40
2017-11-12T04:51:30.670Z,10.13
2017-11-12T04:53:57.783Z,9.00
2017-11-12T04:56:24.080Z,8.80
2017-11-12T04:58:50.317Z,9.53
2017-11-12T05:01:17.477Z,8.83
2017-11-12T05:03:43.672Z,9.60
2017-11-12T05:06:10.653Z,8.23
2017-11-12T05:08:37.621Z,8.33
2017-11-12T05:11:04.351Z,8.40
2017-11-12T05:13:30.695Z,10.03
2017-11-12T05:15:58.803Z,8.13
2017-11-12T05:18:25.747Z,8.90
2017-11-12T05:20:53.835Z,9.70
2017-11-12T05:23:20.857Z,9.03
2017-11-12T05:25:47.915Z,7.93
2017-11-12T05:28:14.859Z,8.47
2017-11-12T05:30:41.854Z,9.77
2017-11-12T05:33:09.589Z,8.40
2017-11-12T05:35:37.656Z,8.50
2017-11-12T05:38:05.424Z,8.50
2017-11-12T05:40:33.127Z,9.13
2017-11-12T05:42:59.341Z,8.90
2017-11-12T05:45:27.558Z,10.33
2017-11-12T05:47:55.595Z,9.77
2017-11-12T05:50:21.779Z,8.80
2017-11-12T05:52:48.744Z,8.73
2017-11-12T05:55:15.705Z,8.00
2017-11-12T05:57:41.973Z,8.33
2017-11-12T06:00:08.196Z,8.40
2017-11-12T06:02:35.459Z,8.60
2017-11-12T06:05:02.889Z,8.07
2017-11-12T06:07:30.126Z,9.60
2017-11-12T06:09:57.338Z,8.67
2017-11-12T06:12:23.684Z,8.27
2017-11-12T06:14:50.641Z,7.10
2017-11-12T06:17:17.678Z,6.60
2017-11-12T06:19:45.711Z,6.43
2017-11-12T06:22:11.993Z,5.50
2017-11-12T06:24:38.211Z,8.30
2017-11-12T06:27:06.164Z,7.90
2017-11-12T06:29:33.177Z,8.57
2017-11-12T06:32:00.905Z,9.27
2017-11-12T06:34:27.121Z,9.23
2017-11-12T06:36:54.766Z,8.80
2017-11-12T06:39:22.030Z,8.10
2017-11-12T06:41:48.990Z,9.70
2017-11-12T06:44:15.984Z,8.70
2017-11-12T06:46:42.642Z,10.23
2017-11-12T06:49:09.076Z,10.97
2017-11-12T06:51:38.534Z,10.60
2017-11-12T06:54:05.807Z,11.20
2017-11-12T06:56:32.832Z,14.50
2017-11-12T06:58:58.993Z,11.47
2017-11-12T07:01:25.808Z,11.20
2017-11-12T07:03:52.073Z,12.30
2017-11-12T07:06:18.303Z,11.33
2017-11-12T07:08:45.414Z,12.00
2017-11-12T07:11:12.459Z,11.70
2017-11-12T07:13:38.658Z,12.00
2017-11-12T07:16:05.690Z,10.77
2017-11-12T07:18:32.105Z,10.93
2017-11-12T07:20:58.545Z,11.40
2017-11-12T07:23:25.207Z,9.87
2017-11-12T07:25:53.002Z,9.80
2017-11-12T07:28:21.633Z,11.63
2017-11-12T07:30:47.835Z,13.40
2017-11-12T07:33:14.121Z,12.60
2017-11-12T07:35:41.978Z,11.97
2017-11-12T07:38:09.834Z,11.50
2017-11-12T07:40:36.032Z,13.07
2017-11-12T07:43:03.246Z,13.20
2017-11-12T07:45:31.147Z,12.97
2017-11-12T07:47:57.372Z,12.30
2017-11-12T07:50:23.967Z,15.27
2017-11-12T07:52:50.912Z,12.27
2017-11-12T07:55:18.893Z,13.87
2017-11-12T07:57:45.927Z,13.77
2017-11-12T08:00:13.253Z,12.60
2017-11-12T08:02:40.393Z,13.10
2017-11-12T08:05:08.101Z,12.97
2017-11-12T08:07:35.036Z,13.20
2017-11-12T08:10:01.419Z,14.70
2017-11-12T08:12:29.028Z,14.20
2017-11-12T08:14:56.115Z,14.30
2017-11-12T08:17:22.299Z,13.57
2017-11-12T08:19:48.522Z,14.07
2017-11-12T08:22:15.610Z,13.57
2017-11-12T08:24:44.383Z,12.30
2017-11-12T08:27:10.972Z,13.97
2017-11-12T08:29:37.211Z,13.70
2017-11-12T08:32:03.819Z,13.80
2017-11-12T08:34:30.036Z,13.80
2017-11-12T08:36:56.240Z,13.77
2017-11-12T08:39:22.533Z,12.90
2017-11-12T08:41:49.558Z,13.67
2017-11-12T08:44:17.252Z,14.93
2017-11-12T08:46:45.982Z,15.30
2017-11-12T08:49:13.027Z,12.87
2017-11-12T08:51:41.505Z,13.80
2017-11-12T08:54:09.840Z,12.43
2017-11-12T08:56:36.140Z,14.47
2017-11-12T08:59:03.219Z,12.17
2017-11-12T09:01:30.960Z,10.33
2017-11-12T09:03:57.238Z,10.87
2017-11-12T09:06:23.489Z,10.13
2017-11-12T09:08:50.469Z,9.50
2017-11-12T09:11:16.671Z,9.23
2017-11-12T09:13:43.649Z,8.47
2017-11-12T09:16:09.879Z,9.50
2017-11-12T09:18:36.363Z,10.10
2017-11-12T09:21:04.144Z,9.63
2017-11-12T09:23:31.883Z,10.73
2017-11-12T09:25:58.110Z,9.03
2017-11-12T09:28:25.306Z,9.73
2017-11-12T09:30:51.705Z,9.00
2017-11-12T09:33:17.961Z,8.80
2017-11-12T09:35:44.943Z,8.03
2017-11-12T09:38:11.209Z,8.90
2017-11-12T09:40:37.465Z,7.67
2017-11-12T09:43:04.484Z,7.03
2017-11-12T09:45:31.746Z,7.43
2017-11-12T09:47:59.514Z,6.40
2017-11-12T09:50:25.893Z,7.27
2017-11-12T09:52:53.128Z,5.50
2017-11-12T09:55:19.370Z,5.13
2017-11-12T09:57:45.878Z,5.30
2017-11-12T10:00:14.098Z,6.20
2017-11-12T10:02:41.235Z,7.50
2017-11-12T10:14:52.491Z,5.00
2017-11-12T10:17:18.792Z,5.00
2017-11-12T10:19:46.507Z,4.57
2017-11-12T10:22:12.701Z,3.77
2017-11-12T10:24:39.714Z,4.03
2017-11-12T10:27:08.538Z,3.43
2017-11-12T10:29:34.750Z,3.77
2017-11-12T10:32:02.633Z,3.50
2017-11-12T10:34:28.843Z,3.40
2017-11-12T10:36:55.807Z,3.27
2017-11-12T10:39:22.064Z,3.17
2017-11-12T10:41:48.416Z,3.47
2017-11-12T10:44:15.648Z,3.40
2017-11-12T10:46:41.874Z,3.00
2017-11-12T10:49:08.887Z,2.90
2017-11-12T10:51:35.890Z,2.23
2017-11-12T10:54:02.212Z,2.70
2017-11-12T10:56:29.191Z,3.00
2017-11-12T10:58:56.467Z,3.50
2017-11-12T11:01:22.690Z,3.20
2017-11-12T11:03:49.666Z,2.83
2017-11-12T11:06:16.262Z,3.07
2017-11-12T11:08:43.518Z,2.70
2017-11-12T11:11:10.511Z,2.50
2017-11-12T11:13:40.361Z,2.60
2017-11-12T11:16:06.615Z,2.50
2017-11-12T11:18:33.582Z,2.70
2017-11-12T11:20:59.835Z,2.20
2017-11-12T11:23:26.836Z,2.30
2017-11-12T11:25:53.818Z,2.67
2017-11-12T11:28:20.093Z,2.20
2017-11-12T11:30:46.315Z,3.00
2017-11-12T11:33:12.925Z,3.53
2017-11-12T11:35:39.953Z,4.07
2017-11-12T11:38:07.464Z,2.87
2017-11-12T11:40:33.907Z,2.83
2017-11-12T11:43:00.060Z,2.57
2017-11-12T11:45:27.774Z,2.47
2017-11-12T11:47:54.741Z,2.50
2017-11-12T11:50:20.973Z,1.87
2017-11-12T11:52:47.990Z,1.87
2017-11-12T11:55:14.270Z,1.80
2017-11-12T11:57:41.310Z,2.10
2017-11-12T12:00:08.288Z,2.07
2017-11-12T12:02:34.498Z,1.93
2017-11-12T12:05:00.791Z,1.60
2017-11-12T12:07:27.045Z,2.20
2017-11-12T12:09:53.996Z,1.90
2017-11-12T12:12:20.947Z,2.17
2017-11-12T12:14:47.179Z,2.70
2017-11-12T12:17:13.397Z,2.23
2017-11-12T12:19:41.288Z,2.20
2017-11-12T12:22:07.581Z,2.27
2017-11-12T12:24:33.826Z,2.50
2017-11-12T12:27:00.846Z,2.43
2017-11-12T12:29:27.040Z,2.63
2017-11-12T12:31:53.260Z,2.40
2017-11-12T12:34:20.428Z,2.50
2017-11-12T12:36:46.996Z,2.40
2017-11-12T12:39:13.250Z,2.40
2017-11-12T12:41:40.619Z,2.00
2017-11-12T12:44:07.944Z,1.67
2017-11-12T12:46:34.241Z,1.80
2017-11-12T12:49:00.724Z,2.60
2017-11-12T12:51:27.739Z,2.50
2017-11-12T12:53:56.211Z,2.13
2017-11-12T12:56:22.544Z,2.50
2017-11-12T12:58:48.759Z,2.50
2017-11-12T13:01:16.003Z,2.60
2017-11-12T13:03:42.243Z,2.77
2017-11-12T13:06:10.216Z,2.33
2017-11-12T13:08:36.444Z,2.57
2017-11-12T13:11:02.812Z,2.50
2017-11-12T13:13:29.026Z,2.53
2017-11-12T13:15:56.249Z,2.40
2017-11-12T13:18:22.534Z,3.00
2017-11-12T13:20:51.324Z,3.73
2017-11-12T13:23:19.048Z,3.03
2017-11-12T13:25:45.372Z,2.83
2017-11-12T13:28:12.400Z,1.90
2017-11-12T13:30:40.131Z,2.53
2017-11-12T13:33:07.120Z,2.47
2017-11-12T13:35:34.904Z,2.00
2017-11-12T13:38:01.238Z,2.20
2017-11-12T13:40:29.415Z,2.40
2017-11-12T13:42:55.760Z,2.10
2017-11-12T13:45:22.883Z,2.33
2017-11-12T13:47:50.011Z,1.87
2017-11-12T13:50:16.245Z,2.23
2017-11-12T13:52:43.420Z,2.57
2017-11-12T13:55:09.636Z,2.07
2017-11-12T13:57:36.704Z,2.10
2017-11-12T14:00:03.916Z,2.20
2017-11-12T14:02:30.135Z,3.03
2017-11-12T14:04:59.014Z,2.60
2017-11-12T14:07:26.759Z,1.90
2017-11-12T14:09:52.964Z,2.53
2017-11-12T14:12:19.140Z,2.20
2017-11-12T14:14:47.073Z,2.70
2017-11-12T14:17:13.246Z,2.70
2017-11-12T14:19:40.292Z,2.70
2017-11-12T14:22:08.208Z,2.60
2017-11-12T14:24:35.308Z,2.20
2017-11-12T14:27:02.298Z,2.47
2017-11-12T14:29:31.234Z,3.10
2017-11-12T14:31:59.074Z,2.53
2017-11-12T14:34:25.825Z,3.60
2017-11-12T14:36:52.021Z,2.50
2017-11-12T14:39:18.247Z,3.10
2017-11-12T14:41:45.464Z,3.53
2017-11-12T14:44:12.446Z,3.40
2017-11-12T14:46:40.560Z,3.47
2017-11-12T14:49:08.345Z,3.20
2017-11-12T14:51:35.686Z,3.87
2017-11-12T14:54:01.912Z,3.33
2017-11-12T14:56:30.135Z,3.60
2017-11-12T14:58:56.818Z,6.47
2017-11-12T15:01:23.398Z,4.57
2017-11-12T15:03:50.729Z,4.27
2017-11-12T15:06:18.729Z,3.80
2017-11-12T15:08:44.956Z,4.47
2017-11-12T15:11:11.214Z,5.40
2017-11-12T15:13:37.524Z,4.83
2017-11-12T15:16:03.956Z,4.13
2017-11-12T15:18:30.220Z,4.27
2017-11-12T15:20:57.004Z,4.83
2017-11-12T15:23:23.977Z,5.00
2017-11-12T15:25:50.311Z,4.27
2017-11-12T15:28:16.564Z,4.87
2017-11-12T15:30:43.511Z,4.63
2017-11-12T15:33:09.733Z,4.63
2017-11-12T15:35:50.904Z,5.30
2017-11-12T15:38:17.172Z,4.63
2017-11-12T15:40:44.334Z,3.80
2017-11-12T15:43:11.360Z,5.80
2017-11-12T15:45:37.661Z,5.50
2017-11-12T15:48:03.904Z,4.73
2017-11-12T15:50:30.167Z,5.83
2017-11-12T15:52:56.590Z,4.57
2017-11-12T15:55:22.871Z,4.77
2017-11-12T15:57:49.121Z,4.33
2017-11-12T16:00:17.507Z,5.10
2017-11-12T16:02:45.092Z,4.87
2017-11-12T16:05:13.381Z,6.40
2017-11-12T16:07:39.669Z,5.43
2017-11-12T16:10:05.924Z,5.97
2017-11-12T16:12:32.160Z,6.07
2017-11-12T16:14:58.752Z,7.50
2017-11-12T16:17:24.978Z,7.00
2017-11-12T16:19:51.720Z,7.50
2017-11-12T16:22:17.943Z,6.30
2017-11-12T16:24:46.299Z,7.90
2017-11-12T16:27:14.296Z,8.70
2017-11-12T16:29:40.530Z,7.27
2017-11-12T16:32:06.865Z,6.60
2017-11-12T16:34:33.938Z,7.67
2017-11-12T16:37:00.248Z,7.53
2017-11-12T16:39:26.640Z,7.97
2017-11-12T16:41:53.277Z,7.50
2017-11-12T16:44:20.292Z,7.90
2017-11-12T16:46:46.582Z,5.40
2017-11-12T16:49:14.128Z,5.43
2017-11-12T16:51:41.627Z,5.33
2017-11-12T16:54:07.990Z,4.83
2017-11-12T16:56:35.873Z,4.83
2017-11-12T16:59:04.203Z,4.60
2017-11-12T17:01:31.381Z,3.97
2017-11-12T17:03:58.494Z,4.77
2017-11-12T17:06:24.811Z,4.23
2017-11-12T17:08:53.245Z,3.90
2017-11-12T17:11:19.486Z,3.80
2017-11-12T17:13:47.496Z,3.50
2017-11-12T17:16:14.518Z,4.10
2017-11-12T17:18:43.280Z,3.60
2017-11-12T17:21:10.214Z,2.90
2017-11-12T17:23:36.454Z,2.50
2017-11-12T17:26:03.530Z,2.30
2017-11-12T17:28:30.529Z,2.17
2017-11-12T17:30:56.777Z,4.27
2017-11-12T17:33:23.035Z,3.03
2017-11-12T17:35:52.229Z,3.10
2017-11-12T17:38:19.502Z,2.80
2017-11-12T17:40:46.097Z,4.30
2017-11-12T17:43:12.314Z,2.70
2017-11-12T17:45:38.669Z,3.40
2017-11-12T17:48:05.626Z,2.50
2017-11-12T17:50:32.680Z,3.17
2017-11-12T17:53:00.122Z,4.00
2017-11-12T17:55:27.123Z,3.83
2017-11-12T17:57:53.480Z,3.50
2017-11-12T18:00:19.755Z,4.60
2017-11-12T18:02:53.247Z,5.30
2017-11-12T18:05:20.540Z,3.83
2017-11-12T18:07:46.786Z,3.80
2017-11-12T18:20:05.412Z,5.30
2017-11-12T18:22:31.704Z,5.50
2017-11-12T18:34:44.456Z,5.80
2017-11-12T18:37:10.793Z,4.87
2017-11-12T18:39:38.271Z,5.50
2017-11-12T18:42:04.710Z,5.90
2017-11-12T18:54:17.778Z,6.57
2017-11-12T18:59:51.625Z,6.07
2017-11-12T19:02:25.662Z,8.20
2017-11-12T19:05:01.980Z,7.27
2017-11-12T19:07:33.077Z,8.50
2017-11-12T19:10:00.998Z,5.60
2017-11-12T19:12:28.455Z,5.60
2017-11-12T19:14:59.669Z,4.50
2017-11-12T19:17:27.423Z,5.10
2017-11-12T19:20:03.922Z,5.03
2017-11-12T19:22:33.228Z,4.57
2017-11-12T19:25:00.280Z,6.30
2017-11-12T19:27:29.727Z,7.03
2017-11-12T19:30:02.976Z,7.70
2017-11-12T19:32:30.582Z,5.93
2017-11-12T19:34:59.245Z,5.33
2017-11-12T19:37:28.056Z,6.50
2017-11-12T19:39:57.764Z,7.13
2017-11-12T19:42:26.289Z,8.00
2017-11-12T19:45:00.576Z,6.60
2017-11-12T19:47:29.072Z,8.00
2017-11-12T19:49:57.048Z,7.27
2017-11-12T20:02:11.194Z,6.70
2017-11-12T20:04:39.108Z,6.80
2017-11-12T20:07:07.056Z,7.43
2017-11-12T20:09:34.533Z,7.10
2017-11-12T20:21:48.183Z,9.27
2017-11-12T20:37:14.991Z,8.07
2017-11-12T20:39:45.531Z,8.37
2017-11-12T20:42:20.216Z,8.57
2017-11-12T20:44:47.094Z,9.67
2017-11-12T20:47:14.724Z,8.60
2017-11-12T20:49:42.798Z,8.73
2017-11-12T20:52:12.599Z,9.67
2017-11-12T20:54:39.397Z,8.47
2017-11-12T20:57:09.336Z,7.37
2017-11-12T20:59:37.567Z,8.93
2017-11-12T21:02:04.347Z,8.27
2017-11-12T21:04:32.433Z,9.27
2017-11-12T21:06:59.053Z,7.63
2017-11-12T21:19:32.065Z,8.30
2017-11-12T21:21:59.990Z,8.67
2017-11-12T21:24:29.205Z,8.60
2017-11-12T21:29:58.614Z,7.57
2017-11-12T21:32:33.691Z,8.67
2017-11-12T21:35:01.786Z,8.20
2017-11-12T21:37:29.077Z,7.73
2017-11-12T21:39:56.104Z,7.30
2017-11-12T21:42:22.897Z,6.83
2017-11-12T21:44:50.093Z,8.13
2017-11-12T21:47:24.282Z,8.40
2017-11-12T21:49:53.912Z,9.20
2017-11-12T21:52:22.741Z,7.93
2017-11-12T21:54:50.672Z,9.40
2017-11-12T21:57:18.300Z,9.40
2017-11-12T21:59:44.868Z,7.50
2017-11-12T22:02:12.856Z,8.33
2017-11-12T22:04:39.261Z,8.23
2017-11-12T22:07:05.541Z,7.77
2017-11-12T22:09:35.516Z,9.63
2017-11-12T22:12:01.876Z,7.13
2017-11-12T22:14:28.119Z,6.57
2017-11-12T22:16:55.466Z,7.43
2017-11-12T22:19:23.296Z,6.80
2017-11-12T22:21:49.612Z,6.40
2017-11-12T22:24:17.209Z,6.83
2017-11-12T22:26:43.438Z,9.40
2017-11-12T22:29:13.163Z,7.40
2017-11-12T22:31:41.410Z,7.00
2017-11-12T22:34:08.052Z,7.33
2017-11-12T22:36:34.397Z,6.67
2017-11-12T22:39:00.835Z,7.67
2017-11-12T22:41:27.924Z,8.00
2017-11-12T22:43:54.990Z,7.90
2017-11-12T22:46:23.316Z,6.80
2017-11-12T22:48:50.508Z,8.43
2017-11-12T22:51:16.708Z,7.60
2017-11-12T22:53:44.309Z,7.63
2017-11-12T22:56:10.611Z,8.20
2017-11-12T22:58:36.860Z,8.27
2017-11-12T23:01:06.305Z,8.83
2017-11-12T23:03:34.138Z,7.47
2017-11-12T23:06:02.130Z,8.10
2017-11-12T23:08:29.919Z,9.37
2017-11-12T23:10:57.671Z,8.40
2017-11-12T23:13:25.383Z,7.73
2017-11-12T23:15:53.040Z,8.90
2017-11-12T23:18:19.266Z,8.57
2017-11-12T23:20:49.744Z,8.60
2017-11-12T23:23:16.995Z,10.00
2017-11-12T23:25:43.310Z,10.27
2017-11-12T23:28:10.472Z,9.30
2017-11-12T23:30:38.018Z,9.60
2017-11-12T23:33:07.025Z,9.07
2017-11-12T23:35:36.368Z,9.30
2017-11-12T23:38:05.163Z,9.30
2017-11-12T23:40:32.110Z,10.20
2017-11-12T23:43:02.063Z,9.27
2017-11-12T23:45:29.076Z,11.30
2017-11-12T23:47:56.794Z,10.47
2017-11-12T23:50:23.449Z,10.10
2017-11-12T23:52:54.691Z,9.90
2017-11-12T23:55:21.514Z,11.17
2017-11-12T23:57:47.760Z,9.27
